Time;durP1;ratioP1;P1;durP2;ratioP2;P2;SDS_P1;SDS_P2;PMS_P1;PMS_P2;Temp;Humidity;BMP_temperature;BMP_pressure;BME280_temperature;BME280_humidity;BME280_pressure;Samples;Min_cycle;Max_cycle;Signal;HPM_P1;HPM_P2
2022/08/20 00:01:00;;;;;;;17.50;12.07;;;20.60;99.90;;;;;;5029789;28;20029;-65
2022/08/20 00:03:37;;;;;;;17.77;13.27;;;20.60;99.90;;;;;;5031165;28;20042;-65
2022/08/20 00:06:11;;;;;;;17.85;12.18;;;20.60;99.90;;;;;;5031098;28;20044;-65
2022/08/20 00:08:37;;;;;;;15.52;12.57;;;20.60;99.90;;;;;;5031156;28;20037;-65
2022/08/20 00:11:06;;;;;;;21.52;13.63;;;20.60;99.90;;;;;;5031258;28;20037;-65
2022/08/20 00:13:39;;;;;;;17.42;13.27;;;20.60;99.90;;;;;;5030936;28;20037;-65
2022/08/20 00:16:06;;;;;;;23.10;13.32;;;20.50;99.90;;;;;;5031013;28;20399;-66
2022/08/20 00:18:32;;;;;;;15.75;11.73;;;20.50;99.90;;;;;;5030973;28;20044;-65
2022/08/20 00:20:59;;;;;;;19.30;12.70;;;20.50;99.90;;;;;;5030102;28;20499;-65
2022/08/20 00:23:25;;;;;;;20.67;12.98;;;20.50;99.90;;;;;;5031191;28;20120;-65
2022/08/20 00:25:52;;;;;;;16.58;12.85;;;20.50;99.90;;;;;;5030623;28;20175;-65
2022/08/20 00:28:18;;;;;;;19.65;12.18;;;20.50;99.90;;;;;;5031051;28;20037;-65
2022/08/20 00:30:44;;;;;;;19.17;11.90;;;20.40;99.90;;;;;;5030880;28;20037;-65
2022/08/20 00:33:15;;;;;;;15.27;12.27;;;20.50;99.90;;;;;;5030801;28;20037;-65
2022/08/20 00:35:45;;;;;;;19.92;12.13;;;20.40;99.90;;;;;;5030754;28;20132;-65
2022/08/20 00:38:11;;;;;;;27.45;12.23;;;20.50;99.90;;;;;;5030895;28;20469;-65
2022/08/20 00:40:41;;;;;;;16.83;12.25;;;20.40;99.90;;;;;;5030911;28;20049;-65
2022/08/20 00:43:25;;;;;;;16.48;12.45;;;20.40;99.90;;;;;;5030771;28;20511;-65
2022/08/20 00:45:54;;;;;;;16.73;11.82;;;20.40;99.90;;;;;;5030491;28;20049;-66
2022/08/20 00:48:20;;;;;;;19.88;13.07;;;20.40;99.90;;;;;;5030813;28;20446;-65
2022/08/20 00:50:46;;;;;;;18.30;12.05;;;20.30;99.90;;;;;;5030722;28;20049;-65
2022/08/20 00:53:11;;;;;;;16.35;11.48;;;20.30;99.90;;;;;;5030772;28;20037;-65
2022/08/20 00:55:37;;;;;;;19.13;10.95;;;20.30;99.90;;;;;;5030471;28;20033;-65
2022/08/20 00:58:08;;;;;;;17.83;11.98;;;20.30;99.90;;;;;;5030632;28;20076;-65
2022/08/20 01:00:38;;;;;;;17.23;11.27;;;20.20;99.90;;;;;;5030966;28;20077;-65
2022/08/20 01:03:08;;;;;;;16.33;10.95;;;20.30;99.90;;;;;;5030713;28;20051;-65
2022/08/20 01:05:35;;;;;;;19.30;10.43;;;20.30;99.90;;;;;;5030581;28;20123;-65
2022/08/20 01:08:01;;;;;;;19.33;11.30;;;20.30;99.90;;;;;;5030650;28;20053;-65
2022/08/20 01:10:33;;;;;;;14.63;9.70;;;20.20;99.90;;;;;;5030420;28;20063;-65
2022/08/20 01:12:59;;;;;;;;;;;20.20;99.90;;;;;;5029216;28;20045;-65
2022/08/20 01:15:27;;;;;;;15.65;9.52;;;20.20;99.90;;;;;;5030276;28;19971;-65
2022/08/20 01:17:57;;;;;;;16.40;10.27;;;20.20;99.90;;;;;;5030476;28;20041;-65
2022/08/20 01:21:01;;;;;;;19.75;10.43;;;20.20;99.90;;;;;;5030270;28;20522;-65
2022/08/20 01:24:01;;;;;;;14.13;9.20;;;20.10;99.90;;;;;;5027333;28;20498;-65
2022/08/20 01:26:31;;;;;;;15.30;9.73;;;20.10;99.90;;;;;;5030241;28;20500;-65
2022/08/20 01:29:03;;;;;;;14.25;10.13;;;20.10;99.90;;;;;;5030602;28;20057;-65
2022/08/20 01:31:32;;;;;;;16.38;10.18;;;20.10;99.90;;;;;;5030609;28;20073;-65
2022/08/20 01:34:00;;;;;;;11.80;9.00;;;20.10;99.90;;;;;;5033950;28;20038;-65
2022/08/20 01:36:30;;;;;;;12.20;9.35;;;20.10;99.90;;;;;;5034182;28;20539;-65
2022/08/20 01:38:57;;;;;;;13.23;9.10;;;20.00;99.90;;;;;;5032719;28;20055;-65
2022/08/20 01:41:44;;;;;;;14.07;9.43;;;20.00;99.90;;;;;;5034089;28;20673;-65
2022/08/20 01:44:12;;;;;;;12.52;8.50;;;20.00;99.90;;;;;;5033827;28;20467;-65
2022/08/20 01:46:41;;;;;;;12.23;9.20;;;20.00;99.90;;;;;;5033696;28;20099;-65
2022/08/20 01:49:15;;;;;;;12.88;8.68;;;20.00;99.90;;;;;;5032621;28;20058;-65
2022/08/20 01:51:41;;;;;;;17.77;9.70;;;20.00;99.90;;;;;;5033717;28;20526;-65
2022/08/20 01:54:07;;;;;;;15.80;9.98;;;20.00;99.90;;;;;;5033700;28;20069;-65
2022/08/20 01:56:34;;;;;;;17.60;10.00;;;20.00;99.90;;;;;;5033894;28;20473;-65
2022/08/20 01:59:07;;;;;;;13.98;9.38;;;19.90;99.90;;;;;;5033680;28;20045;-65
2022/08/20 02:01:39;;;;;;;15.43;9.18;;;19.90;99.90;;;;;;5033603;28;20045;-65
2022/08/20 02:04:07;;;;;;;15.93;8.98;;;19.90;99.90;;;;;;5033161;28;20037;-65
2022/08/20 02:06:37;;;;;;;15.00;9.38;;;19.90;99.90;;;;;;5033435;28;20128;-65
2022/08/20 02:09:04;;;;;;;14.25;9.35;;;19.90;99.90;;;;;;5033440;28;20410;-65
2022/08/20 02:11:31;;;;;;;17.10;9.75;;;19.90;99.90;;;;;;5033576;28;20116;-65
2022/08/20 02:13:56;;;;;;;12.25;9.32;;;19.90;99.90;;;;;;5032806;28;20140;-66
2022/08/20 02:16:27;;;;;;;16.77;9.63;;;19.90;99.90;;;;;;5033415;28;20559;-65
2022/08/20 02:18:57;;;;;;;18.08;9.57;;;19.90;99.90;;;;;;5033578;28;20045;-65
2022/08/20 02:21:27;;;;;;;14.15;9.13;;;19.80;99.90;;;;;;5033367;28;20415;-65
2022/08/20 02:23:52;;;;;;;18.35;8.73;;;19.80;99.90;;;;;;5032990;28;20499;-65
2022/08/20 02:26:18;;;;;;;18.63;9.50;;;19.80;99.90;;;;;;5033038;28;20094;-65
2022/08/20 02:28:49;;;;;;;12.85;9.63;;;19.80;99.90;;;;;;5033047;28;20106;-65
2022/08/20 02:31:20;;;;;;;14.40;8.70;;;19.70;99.90;;;;;;5032936;28;20484;-65
2022/08/20 02:33:46;;;;;;;12.10;8.90;;;19.70;99.90;;;;;;5032892;28;20034;-65
2022/08/20 02:36:14;;;;;;;14.90;9.40;;;19.70;99.90;;;;;;5033067;28;20049;-65
2022/08/20 02:38:40;;;;;;;11.77;8.48;;;19.70;99.90;;;;;;5033025;28;20038;-65
2022/08/20 02:41:07;;;;;;;18.50;9.18;;;19.70;99.90;;;;;;5032810;28;20044;-65
2022/08/20 02:43:33;;;;;;;13.63;8.80;;;19.70;99.90;;;;;;5032026;28;20752;-65
2022/08/20 02:45:59;;;;;;;12.52;8.93;;;19.70;99.90;;;;;;5032688;28;20065;-65
2022/08/20 02:48:26;;;;;;;17.30;9.95;;;19.60;99.90;;;;;;5032807;28;20042;-65
2022/08/20 02:50:59;;;;;;;14.38;8.43;;;19.60;99.90;;;;;;5032696;28;20037;-66
2022/08/20 02:53:25;;;;;;;14.65;8.30;;;19.60;99.90;;;;;;5032676;28;20053;-65
2022/08/20 02:55:51;;;;;;;12.73;8.45;;;19.60;99.90;;;;;;5032260;28;20121;-65
2022/08/20 02:58:18;;;;;;;16.50;8.52;;;19.50;99.90;;;;;;5032445;28;20211;-65
2022/08/20 03:00:44;;;;;;;18.33;8.32;;;19.50;99.90;;;;;;5032516;28;20049;-65
2022/08/20 03:03:11;;;;;;;10.52;8.00;;;19.50;99.90;;;;;;5032330;28;20565;-65
2022/08/20 03:05:39;;;;;;;16.75;9.38;;;19.50;99.90;;;;;;5032200;28;20041;-65
2022/08/20 03:08:07;;;;;;;14.18;8.13;;;19.50;99.90;;;;;;5032259;28;20041;-65
2022/08/20 03:10:35;;;;;;;16.30;8.40;;;19.50;99.90;;;;;;5030856;28;20065;-65
2022/08/20 03:13:01;;;;;;;14.43;7.93;;;19.50;99.90;;;;;;5032398;28;20086;-66
2022/08/20 03:15:29;;;;;;;15.75;8.23;;;19.40;99.90;;;;;;5032042;28;20116;-65
2022/08/20 03:17:55;;;;;;;13.77;8.27;;;19.40;99.90;;;;;;5032269;28;20068;-66
2022/08/20 03:20:21;;;;;;;12.98;8.15;;;19.40;99.90;;;;;;5031997;28;20487;-65
2022/08/20 03:22:48;;;;;;;13.10;7.88;;;19.40;99.90;;;;;;5032017;28;20514;-65
2022/08/20 03:25:14;;;;;;;12.18;8.40;;;19.40;99.90;;;;;;5031711;28;20047;-65
2022/08/20 03:27:40;;;;;;;13.25;8.52;;;19.30;99.90;;;;;;5030751;28;20048;-65
2022/08/20 03:30:09;;;;;;;14.15;7.72;;;19.30;99.90;;;;;;5030732;28;20033;-65
2022/08/20 03:32:34;;;;;;;15.35;8.27;;;19.30;99.90;;;;;;5031934;28;20041;-65
2022/08/20 03:35:00;;;;;;;14.20;7.75;;;19.30;99.90;;;;;;5031589;28;20041;-66
2022/08/20 03:37:32;;;;;;;17.52;8.30;;;19.20;99.90;;;;;;5031658;28;20041;-66
2022/08/20 03:39:58;;;;;;;11.75;7.90;;;19.20;99.90;;;;;;5031920;28;20041;-66
2022/08/20 03:42:24;;;;;;;17.73;8.20;;;19.20;99.90;;;;;;5031891;28;20086;-66
2022/08/20 03:44:50;;;;;;;14.13;7.80;;;19.10;99.90;;;;;;5031388;28;20049;-66
2022/08/20 03:47:16;;;;;;;18.05;8.10;;;19.20;99.90;;;;;;5031634;28;20188;-66
2022/08/20 03:49:42;;;;;;;15.93;7.95;;;19.20;99.90;;;;;;5031593;28;20058;-66
2022/08/20 03:52:07;;;;;;;15.55;7.85;;;19.10;99.90;;;;;;5031426;28;20034;-66
2022/08/20 03:54:33;;;;;;;16.00;8.68;;;19.10;99.90;;;;;;5031299;28;20041;-66
2022/08/20 03:57:01;;;;;;;13.35;8.23;;;19.10;99.90;;;;;;5030094;28;20120;-66
2022/08/20 03:59:26;;;;;;;13.85;8.02;;;19.10;99.90;;;;;;5031446;28;20430;-66
2022/08/20 04:01:53;;;;;;;15.90;7.85;;;19.10;99.90;;;;;;5031405;28;20045;-66
2022/08/20 04:04:19;;;;;;;15.70;8.10;;;19.10;99.90;;;;;;5031146;28;20049;-66
2022/08/20 04:06:46;;;;;;;16.15;7.50;;;19.10;99.90;;;;;;5031187;28;20052;-66
2022/08/20 04:09:12;;;;;;;13.85;7.78;;;19.00;99.90;;;;;;5029938;28;20037;-66
2022/08/20 04:11:38;;;;;;;14.88;8.55;;;18.90;99.90;;;;;;5031423;28;20037;-66
2022/08/20 04:14:04;;;;;;;15.48;7.90;;;18.90;99.90;;;;;;5030274;28;20051;-66
2022/08/20 04:16:31;;;;;;;16.13;8.35;;;19.00;99.90;;;;;;5030597;28;20459;-66
2022/08/20 04:18:57;;;;;;;12.43;8.45;;;18.90;99.90;;;;;;5030449;28;20084;-66
2022/08/20 04:21:23;;;;;;;12.93;8.52;;;18.90;99.90;;;;;;5030581;28;20069;-66
2022/08/20 04:23:48;;;;;;;13.43;8.40;;;18.90;99.90;;;;;;5030849;28;20042;-65
2022/08/20 04:26:15;;;;;;;15.77;8.57;;;18.90;99.90;;;;;;5031135;28;20112;-66
2022/08/20 04:28:40;;;;;;;16.25;8.52;;;18.90;99.90;;;;;;5030228;28;20454;-66
2022/08/20 04:31:06;;;;;;;18.05;8.88;;;18.90;99.90;;;;;;5028209;28;20029;-66
2022/08/20 04:33:31;;;;;;;18.88;8.50;;;18.90;99.90;;;;;;5026475;28;20124;-66
2022/08/20 04:36:01;;;;;;;12.63;8.10;;;18.90;99.90;;;;;;5028287;28;20116;-66
2022/08/20 04:38:28;;;;;;;15.30;8.82;;;18.80;99.90;;;;;;5027996;28;20068;-66
2022/08/20 04:40:57;;;;;;;19.73;8.20;;;18.80;99.90;;;;;;5030797;28;20041;-66
2022/08/20 04:43:28;;;;;;;12.20;8.13;;;18.80;99.90;;;;;;5030169;28;20045;-66
2022/08/20 04:45:56;;;;;;;12.82;8.45;;;18.80;99.90;;;;;;5028970;28;20392;-66
2022/08/20 04:48:23;;;;;;;14.52;8.05;;;18.90;99.90;;;;;;5028305;28;20176;-66
2022/08/20 04:50:50;;;;;;;19.02;8.32;;;18.80;99.90;;;;;;5030213;28;20091;-66
2022/08/20 04:53:18;;;;;;;14.13;8.00;;;18.80;99.90;;;;;;5029687;28;20037;-66
2022/08/20 04:55:45;;;;;;;18.17;7.55;;;18.80;99.90;;;;;;5029732;28;20045;-66
2022/08/20 04:58:17;;;;;;;15.48;7.80;;;18.80;99.90;;;;;;5030921;28;20403;-66
2022/08/20 05:00:54;;;;;;;15.18;8.00;;;18.80;99.90;;;;;;5030791;28;20055;-66
2022/08/20 05:03:21;;;;;;;14.95;7.75;;;18.70;99.90;;;;;;5030724;28;20261;-66
2022/08/20 05:05:47;;;;;;;15.20;7.82;;;18.70;99.90;;;;;;5030418;28;20049;-66
2022/08/20 05:08:14;;;;;;;12.23;8.15;;;18.70;99.90;;;;;;5033495;28;20091;-66
2022/08/20 05:10:40;;;;;;;13.00;8.40;;;18.60;99.90;;;;;;5034408;28;20069;-66
2022/08/20 05:13:07;;;;;;;13.50;7.25;;;18.50;99.90;;;;;;5034425;28;20406;-66
2022/08/20 05:15:34;;;;;;;16.50;8.05;;;18.50;99.90;;;;;;5016702;28;20091;-66
2022/08/20 05:18:03;;;;;;;14.20;7.40;;;18.50;99.90;;;;;;5034395;28;20591;-66
2022/08/20 05:20:30;;;;;;;13.05;7.80;;;18.60;99.90;;;;;;5034319;28;20041;-66
2022/08/20 05:23:00;;;;;;;13.38;6.97;;;18.60;99.90;;;;;;5034527;28;20045;-66
2022/08/20 05:25:28;;;;;;;14.82;7.38;;;18.60;99.90;;;;;;5034199;28;20038;-66
2022/08/20 05:27:59;;;;;;;16.60;7.25;;;18.60;99.90;;;;;;5034236;28;20053;-66
2022/08/20 05:30:32;;;;;;;14.90;7.50;;;18.60;99.90;;;;;;5034222;28;20041;-65
2022/08/20 05:33:05;;;;;;;13.95;7.90;;;18.60;99.90;;;;;;5032990;28;20038;-66
2022/08/20 05:35:33;;;;;;;14.82;7.82;;;18.60;99.90;;;;;;5034063;28;20466;-66
2022/08/20 05:38:00;;;;;;;13.82;7.40;;;18.60;99.90;;;;;;5034176;28;20403;-66
2022/08/20 05:40:26;;;;;;;11.32;6.80;;;18.50;99.90;;;;;;5033892;28;20046;-65
2022/08/20 05:42:53;;;;;;;10.82;7.03;;;18.50;99.90;;;;;;5034058;28;20037;-66
2022/08/20 05:45:20;;;;;;;13.57;7.53;;;18.50;99.90;;;;;;5033566;28;20112;-66
2022/08/20 05:47:47;;;;;;;16.70;7.72;;;18.60;99.90;;;;;;5032573;28;20045;-66
2022/08/20 05:50:16;;;;;;;15.18;7.15;;;18.60;99.90;;;;;;5033893;28;20095;-65
2022/08/20 05:52:43;;;;;;;16.60;8.05;;;18.60;99.90;;;;;;5033954;28;20041;-66
2022/08/20 05:55:14;;;;;;;15.30;7.47;;;18.60;99.90;;;;;;5033557;28;20044;-66
2022/08/20 05:57:41;;;;;;;14.25;7.03;;;18.60;99.90;;;;;;5033801;28;20041;-66
2022/08/20 06:00:11;;;;;;;14.48;7.20;;;18.60;99.90;;;;;;5033646;28;20041;-66
2022/08/20 06:05:21;;;;;;;17.13;7.15;;;18.70;99.90;;;;;;5033478;28;20053;-65
2022/08/20 06:07:46;;;;;;;15.02;7.50;;;18.60;99.90;;;;;;5033369;28;20045;-66
2022/08/20 06:10:12;;;;;;;12.73;7.15;;;18.70;99.90;;;;;;5033288;28;20049;-65
2022/08/20 06:12:38;;;;;;;13.90;7.50;;;18.60;99.90;;;;;;5033186;28;20485;-65
2022/08/20 06:15:05;;;;;;;14.90;7.20;;;18.70;99.90;;;;;;5033281;28;20399;-65
2022/08/20 06:17:32;;;;;;;15.43;6.82;;;18.70;99.90;;;;;;5033121;28;20491;-66
2022/08/20 06:20:03;;;;;;;13.32;6.80;;;18.70;99.90;;;;;;5032203;28;20056;-66
2022/08/20 06:22:28;;;;;;;11.90;6.32;;;18.70;99.90;;;;;;5033265;28;20117;-66
2022/08/20 06:24:54;;;;;;;16.27;6.32;;;18.70;99.90;;;;;;5032871;28;20124;-66
2022/08/20 06:27:20;;;;;;;13.30;7.10;;;18.80;99.90;;;;;;5031898;28;20120;-65
2022/08/20 06:29:47;;;;;;;14.25;6.60;;;18.80;99.90;;;;;;5033147;28;20079;-65
2022/08/20 06:32:12;;;;;;;9.68;6.20;;;18.80;99.90;;;;;;5033162;28;20084;-65
2022/08/20 06:34:38;;;;;;;16.75;7.07;;;18.80;99.90;;;;;;5032025;28;20061;-65
2022/08/20 06:37:18;;;;;;;14.18;6.35;;;18.80;99.90;;;;;;5029771;28;20038;-66
2022/08/20 06:39:43;;;;;;;18.08;6.13;;;18.80;99.90;;;;;;5021068;28;20045;-66
2022/08/20 06:42:09;;;;;;;16.58;5.80;;;18.90;99.90;;;;;;5013324;28;20415;-65
2022/08/20 06:44:35;;;;;;;10.93;4.72;;;18.80;99.90;;;;;;5012848;28;20038;-65
2022/08/20 06:47:03;;;;;;;16.00;5.07;;;18.90;99.90;;;;;;5013026;28;20488;-65
2022/08/20 06:49:29;;;;;;;14.57;5.07;;;18.90;99.90;;;;;;5012834;28;20096;-65
2022/08/20 06:51:55;;;;;;;15.80;5.00;;;19.00;99.90;;;;;;5013164;28;20073;-66
2022/08/20 06:54:21;;;;;;;18.35;5.50;;;19.10;99.90;;;;;;5012334;28;20080;-66
2022/08/20 06:56:47;;;;;;;8.95;3.67;;;19.20;99.90;;;;;;5012924;28;20423;-66
2022/08/20 06:59:12;;;;;;;15.68;4.25;;;19.30;99.90;;;;;;5021620;28;20038;-65
2022/08/20 07:01:38;;;;;;;8.70;3.75;;;19.40;99.90;;;;;;5021313;28;20100;-65
2022/08/20 07:04:06;;;;;;;14.45;3.83;;;19.40;99.90;;;;;;5031347;28;20607;-66
2022/08/20 07:06:31;;;;;;;10.70;3.47;;;19.40;99.90;;;;;;5014488;28;20049;-66
2022/08/20 07:08:57;;;;;;;10.15;3.20;;;19.40;99.90;;;;;;5030997;28;20505;-66
2022/08/20 07:11:23;;;;;;;8.20;2.50;;;19.40;99.90;;;;;;5032306;28;20096;-65
2022/08/20 07:13:49;;;;;;;11.45;2.42;;;19.50;99.90;;;;;;5032008;28;20037;-66
2022/08/20 07:16:15;;;;;;;8.55;2.55;;;19.60;99.90;;;;;;5032522;28;20039;-65
2022/08/20 07:18:41;;;;;;;6.88;2.55;;;19.60;99.90;;;;;;5032346;28;20041;-66
2022/08/20 07:21:06;;;;;;;10.93;3.10;;;19.60;99.90;;;;;;5032230;28;20037;-65
2022/08/20 07:23:32;;;;;;;6.65;2.60;;;19.60;99.90;;;;;;5025068;28;20033;-66
2022/08/20 07:25:57;;;;;;;9.07;2.88;;;19.70;99.90;;;;;;5021683;28;20034;-66
2022/08/20 07:28:27;;;;;;;11.75;3.17;;;19.70;99.90;;;;;;5015527;28;20125;-66
2022/08/20 07:33:38;;;;;;;6.50;2.03;;;19.70;99.90;;;;;;5012312;28;20041;-66
2022/08/20 07:36:04;;;;;;;7.30;2.03;;;19.90;99.90;;;;;;5011973;28;20105;-66
2022/08/20 07:38:30;;;;;;;9.60;2.38;;;20.00;99.90;;;;;;5011929;28;20471;-66
2022/08/20 07:41:11;;;;;;;7.90;2.17;;;20.00;99.90;;;;;;5011406;28;20037;-67
2022/08/20 07:43:38;;;;;;;11.10;2.17;;;20.10;99.90;;;;;;5010720;28;20060;-66
2022/08/20 07:46:08;;;;;;;6.50;2.22;;;20.00;99.90;;;;;;5011818;28;20104;-66
2022/08/20 07:48:35;;;;;;;8.07;2.10;;;20.10;99.90;;;;;;5010576;28;20512;-66
2022/08/20 07:51:03;;;;;;;6.80;2.00;;;20.00;99.90;;;;;;5011757;28;20061;-66
2022/08/20 07:53:29;;;;;;;9.60;2.03;;;19.90;99.90;;;;;;5011904;28;20037;-66
2022/08/20 07:55:56;;;;;;;6.65;2.05;;;19.90;99.90;;;;;;5011695;28;20092;-66
2022/08/20 07:58:23;;;;;;;5.22;1.55;;;19.90;99.90;;;;;;5011848;28;20096;-67
2022/08/20 08:00:50;;;;;;;9.00;1.65;;;20.00;99.90;;;;;;5010483;28;20040;-66
2022/08/20 08:03:16;;;;;;;5.13;1.65;;;20.10;99.90;;;;;;5011604;28;20057;-66
2022/08/20 08:05:45;;;;;;;13.43;1.77;;;20.10;99.90;;;;;;5011336;28;20049;-66
2022/08/20 08:08:16;;;;;;;9.77;1.45;;;20.10;99.90;;;;;;5011320;28;20570;-66
2022/08/20 08:10:42;;;;;;;4.53;1.20;;;20.10;99.90;;;;;;5011385;28;20030;-66
2022/08/20 08:13:11;;;;;;;6.90;1.60;;;20.10;99.90;;;;;;5010257;28;20037;-66
2022/08/20 08:15:43;;;;;;;7.40;1.52;;;20.20;99.90;;;;;;5011221;28;20050;-66
2022/08/20 08:18:15;;;;;;;9.60;1.57;;;20.20;99.90;;;;;;5012704;28;20117;-67
2022/08/20 08:20:43;;;;;;;5.82;1.27;;;20.20;99.90;;;;;;5011694;28;20050;-67
2022/08/20 08:23:10;;;;;;;7.32;1.33;;;20.20;99.90;;;;;;5010290;28;20475;-66
2022/08/20 08:25:38;;;;;;;6.90;1.88;;;20.20;99.90;;;;;;5009988;28;20100;-67
2022/08/20 08:28:04;;;;;;;8.15;1.45;;;20.20;99.90;;;;;;5011322;28;20053;-66
2022/08/20 08:30:30;;;;;;;11.40;2.47;;;20.30;99.90;;;;;;5010050;28;20053;-66
2022/08/20 08:35:45;;;;;;;9.50;1.73;;;20.40;99.90;;;;;;5011000;28;20050;-65
2022/08/20 08:38:12;;;;;;;4.30;1.38;;;20.50;99.90;;;;;;5010712;28;20117;-65
2022/08/20 08:40:39;;;;;;;12.20;1.50;;;20.50;99.90;;;;;;5011188;28;20050;-65
2022/08/20 08:43:05;;;;;;;5.82;1.77;;;20.50;99.90;;;;;;5018539;28;20111;-65
2022/08/20 08:45:41;;;;;;;4.28;1.33;;;20.60;99.90;;;;;;5020083;28;20057;-65
2022/08/20 08:48:08;;;;;;;7.30;1.60;;;20.60;99.90;;;;;;5020360;28;20045;-65
2022/08/20 08:50:34;;;;;;;5.32;1.63;;;20.70;99.90;;;;;;5023481;28;20128;-65
2022/08/20 08:53:01;;;;;;;5.80;1.90;;;20.60;99.90;;;;;;5030769;28;20042;-65
2022/08/20 08:55:29;;;;;;;6.22;1.48;;;20.60;99.90;;;;;;5030430;28;20037;-65
2022/08/20 08:57:59;;;;;;;8.05;1.50;;;20.70;99.90;;;;;;5030676;28;20492;-66
2022/08/20 09:00:27;;;;;;;6.35;1.52;;;20.60;99.90;;;;;;5029340;28;20041;-67
2022/08/20 09:03:02;;;;;;;6.25;1.55;;;20.70;99.90;;;;;;5030784;28;20121;-66
2022/08/20 09:05:51;;;;;;;8.30;1.70;;;20.80;99.90;;;;;;5030378;28;20128;-67
2022/08/20 09:08:36;;;;;;;6.47;1.63;;;20.80;99.90;;;;;;5030544;28;20444;-66
2022/08/20 09:11:07;;;;;;;6.05;1.55;;;20.80;99.90;;;;;;5029381;28;20045;-66
2022/08/20 09:13:33;;;;;;;7.07;1.55;;;20.80;99.90;;;;;;5029269;28;20091;-67
2022/08/20 09:15:59;;;;;;;6.22;1.20;;;20.90;99.90;;;;;;5030299;28;20034;-67
2022/08/20 09:18:25;;;;;;;3.80;1.23;;;20.90;99.90;;;;;;5029293;28;20048;-66
2022/08/20 09:20:51;;;;;;;5.93;1.02;;;20.90;99.90;;;;;;5030369;28;20099;-67
2022/08/20 09:23:16;;;;;;;5.68;1.17;;;20.90;99.90;;;;;;5030581;28;20041;-67
2022/08/20 09:25:42;;;;;;;4.53;1.30;;;21.00;99.90;;;;;;5030287;28;20084;-67
2022/08/20 09:28:07;;;;;;;5.03;1.30;;;21.10;99.90;;;;;;5030449;28;20553;-67
2022/08/20 09:30:33;;;;;;;5.05;1.05;;;21.10;99.90;;;;;;5030295;28;20041;-66
2022/08/20 09:32:59;;;;;;;6.88;1.23;;;21.20;99.90;;;;;;5012640;28;20121;-66
2022/08/20 09:35:25;;;;;;;5.13;1.20;;;21.10;99.90;;;;;;5030248;28;20160;-67
2022/08/20 09:37:51;;;;;;;3.75;1.02;;;21.10;99.90;;;;;;5030363;28;20052;-67
2022/08/20 09:40:17;;;;;;;6.35;1.17;;;21.20;99.90;;;;;;5030360;28;20120;-66
2022/08/20 09:42:43;;;;;;;4.88;1.40;;;21.20;99.90;;;;;;5030375;28;20041;-66
2022/08/20 09:45:10;;;;;;;7.10;1.15;;;21.20;99.90;;;;;;5029983;28;20042;-66
2022/08/20 09:47:36;;;;;;;4.47;1.15;;;21.20;99.90;;;;;;5030166;28;20038;-67
2022/08/20 09:50:03;;;;;;;5.18;1.45;;;21.20;99.90;;;;;;5030395;28;20044;-66
2022/08/20 09:52:33;;;;;;;7.75;1.58;;;21.20;99.90;;;;;;5029360;28;20048;-66
2022/08/20 09:55:25;;;;;;;3.63;1.13;;;21.20;99.90;;;;;;5033472;28;20510;-67
2022/08/20 09:57:51;;;;;;;8.38;1.58;;;21.20;99.90;;;;;;5033639;28;20049;-67
2022/08/20 10:00:18;;;;;;;6.65;1.40;;;21.20;99.90;;;;;;5033892;28;20103;-66
2022/08/20 10:02:44;;;;;;;3.45;1.20;;;21.30;99.90;;;;;;5033573;28;20487;-66
2022/08/20 10:05:10;;;;;;;3.88;1.00;;;21.40;99.90;;;;;;5033415;28;20045;-67
2022/08/20 10:07:37;;;;;;;10.93;1.88;;;21.40;99.90;;;;;;5033434;28;20052;-67
2022/08/20 10:10:05;;;;;;;6.70;1.30;;;21.50;99.90;;;;;;5033378;28;20037;-67
2022/08/20 10:12:30;;;;;;;6.00;1.55;;;21.50;99.90;;;;;;5033300;28;20056;-67
2022/08/20 10:14:56;;;;;;;7.60;1.35;;;21.50;99.90;;;;;;5033344;28;20352;-66
2022/08/20 10:17:22;;;;;;;8.43;1.60;;;21.40;99.90;;;;;;5033471;28;20049;-67
2022/08/20 10:19:48;;;;;;;7.60;1.60;;;21.40;99.90;;;;;;5033370;28;20037;-66
2022/08/20 10:22:13;;;;;;;4.53;1.33;;;21.50;99.90;;;;;;5031977;28;20438;-66
2022/08/20 10:24:39;;;;;;;6.05;1.33;;;21.60;99.90;;;;;;5031661;28;20412;-66
2022/08/20 10:27:04;;;;;;;6.45;1.20;;;21.70;99.90;;;;;;5033059;28;20464;-66
2022/08/20 10:29:31;;;;;;;7.07;1.20;;;21.70;99.90;;;;;;5033208;28;20064;-66
2022/08/20 10:32:06;;;;;;;5.10;1.40;;;21.70;99.90;;;;;;5033318;28;20110;-66
2022/08/20 10:34:31;;;;;;;7.10;1.27;;;21.80;99.90;;;;;;5031755;28;20476;-67
2022/08/20 10:36:57;;;;;;;7.07;1.30;;;21.80;99.90;;;;;;5032555;28;20082;-66
2022/08/20 10:39:23;;;;;;;10.43;1.80;;;21.70;99.90;;;;;;5033055;28;20045;-66
2022/08/20 10:41:48;;;;;;;6.00;1.10;;;21.70;99.90;;;;;;5033198;28;20045;-66
2022/08/20 10:44:16;;;;;;;6.05;1.45;;;21.70;99.90;;;;;;5032562;28;20052;-67
2022/08/20 10:46:42;;;;;;;6.65;1.58;;;21.80;99.90;;;;;;5032557;28;20411;-66
2022/08/20 10:49:07;;;;;;;4.80;1.35;;;21.80;99.90;;;;;;5032614;28;20049;-66
2022/08/20 10:51:33;;;;;;;6.45;1.65;;;21.80;99.90;;;;;;5032640;28;20041;-65
2022/08/20 10:53:59;;;;;;;5.78;1.75;;;22.00;99.90;;;;;;5032585;28;20073;-65
2022/08/20 10:56:24;;;;;;;7.93;1.50;;;21.90;99.90;;;;;;5032673;28;20052;-65
2022/08/20 10:58:50;;;;;;;7.50;1.50;;;22.00;99.90;;;;;;5014872;28;20052;-65
2022/08/20 11:01:15;;;;;;;5.50;1.50;;;22.10;99.90;;;;;;5032380;28;20037;-66
2022/08/20 11:03:41;;;;;;;6.68;1.35;;;22.10;99.90;;;;;;5032143;28;20044;-67
2022/08/20 11:06:07;;;;;;;4.35;1.35;;;22.20;99.90;;;;;;5031615;28;20056;-67
2022/08/20 11:08:32;;;;;;;3.55;1.40;;;22.30;99.90;;;;;;5032226;28;20410;-65
2022/08/20 11:10:58;;;;;;;7.10;1.55;;;22.20;99.90;;;;;;5032373;28;20037;-65
2022/08/20 11:13:23;;;;;;;7.38;1.48;;;22.20;99.90;;;;;;5032370;28;20499;-65
2022/08/20 11:15:49;;;;;;;3.60;1.30;;;22.30;99.90;;;;;;5032048;28;20037;-65
2022/08/20 11:18:14;;;;;;;7.15;1.50;;;22.20;99.90;;;;;;5014326;28;20545;-65
2022/08/20 11:20:40;;;;;;;8.25;1.67;;;22.20;99.90;;;;;;5030874;28;20100;-64
2022/08/20 11:23:06;;;;;;;5.72;1.27;;;22.30;99.90;;;;;;5032296;28;20392;-65
2022/08/20 11:25:32;;;;;;;7.82;2.10;;;22.30;99.90;;;;;;5031921;28;20358;-65
2022/08/20 11:27:57;;;;;;;4.60;1.40;;;22.30;99.90;;;;;;5031941;28;20124;-65
2022/08/20 11:30:29;;;;;;;5.85;1.35;;;22.30;99.90;;;;;;5031955;28;20045;-65
2022/08/20 11:32:56;;;;;;;6.53;1.55;;;22.30;99.90;;;;;;5031860;28;20074;-65
2022/08/20 11:35:22;;;;;;;6.75;1.52;;;22.40;99.90;;;;;;5031727;28;20038;-65
2022/08/20 11:37:49;;;;;;;6.03;1.40;;;22.50;99.90;;;;;;5031672;28;20041;-65
2022/08/20 11:40:15;;;;;;;3.58;1.13;;;22.50;99.90;;;;;;5031810;28;20045;-65
2022/08/20 11:42:41;;;;;;;8.02;1.40;;;22.50;99.90;;;;;;5031793;28;20120;-65
2022/08/20 11:45:07;;;;;;;7.22;1.55;;;22.50;99.90;;;;;;5031468;28;20041;-65
2022/08/20 11:47:34;;;;;;;9.40;1.52;;;22.60;99.90;;;;;;5031587;28;20048;-65
2022/08/20 11:50:12;;;;;;;8.48;1.17;;;22.60;99.90;;;;;;5031727;28;20077;-65
2022/08/20 11:52:37;;;;;;;6.05;1.38;;;22.60;99.90;;;;;;5031753;28;20044;-65
2022/08/20 11:55:05;;;;;;;9.25;1.45;;;22.50;99.90;;;;;;5031137;28;20402;-65
2022/08/20 11:57:33;;;;;;;8.65;1.77;;;22.60;99.90;;;;;;5031531;28;20037;-65
2022/08/20 12:00:00;;;;;;;3.60;1.20;;;22.50;99.90;;;;;;5022321;28;20069;-65
2022/08/20 12:02:27;;;;;;;3.05;1.13;;;22.50;99.90;;;;;;5020867;28;20483;-65
2022/08/20 12:04:53;;;;;;;6.00;1.42;;;22.60;99.90;;;;;;5030471;28;20176;-65
2022/08/20 12:07:21;;;;;;;5.97;1.15;;;22.60;99.90;;;;;;5031460;28;20053;-65
2022/08/20 12:09:48;;;;;;;3.58;1.30;;;22.50;99.90;;;;;;5031216;28;20068;-65
2022/08/20 12:12:15;;;;;;;3.55;1.23;;;22.60;99.90;;;;;;5023708;28;20487;-66
2022/08/20 12:14:40;;;;;;;6.63;1.08;;;22.60;99.90;;;;;;5016581;28;20030;-65
2022/08/20 12:17:10;;;;;;;9.43;1.30;;;22.60;99.90;;;;;;5010982;28;20389;-65
2022/08/20 12:19:41;;;;;;;4.97;1.10;;;22.50;99.90;;;;;;5010037;28;20640;-65
2022/08/20 12:22:07;;;;;;;6.53;1.38;;;22.60;99.90;;;;;;5011492;28;20120;-65
2022/08/20 12:24:33;;;;;;;5.22;1.23;;;22.60;99.90;;;;;;5011065;28;20089;-65
2022/08/20 12:27:10;;;;;;;8.75;1.30;;;22.60;99.90;;;;;;5009966;28;20074;-65
2022/08/20 12:29:37;;;;;;;4.18;1.38;;;22.60;99.90;;;;;;5011428;28;20443;-65
2022/08/20 12:32:05;;;;;;;3.75;1.40;;;22.70;99.90;;;;;;5011379;28;20136;-65
2022/08/20 12:34:38;;;;;;;7.35;1.50;;;22.70;99.90;;;;;;5011021;28;20065;-65
2022/08/20 12:37:08;;;;;;;4.18;1.13;;;22.70;99.90;;;;;;5011219;28;20507;-65
2022/08/20 12:39:36;;;;;;;5.15;1.02;;;22.80;99.90;;;;;;5011254;28;20042;-65
2022/08/20 12:42:02;;;;;;;5.80;1.33;;;22.80;99.90;;;;;;5011276;28;20046;-65
2022/08/20 12:44:29;;;;;;;6.55;1.38;;;22.90;99.90;;;;;;5010943;28;20077;-65
2022/08/20 12:47:08;;;;;;;4.15;1.30;;;23.00;99.90;;;;;;5009847;28;20046;-65
2022/08/20 12:49:34;;;;;;;6.40;1.48;;;23.00;99.10;;;;;;5010945;28;20044;-65
2022/08/20 12:52:00;;;;;;;7.50;1.52;;;23.00;99.90;;;;;;5011026;28;20117;-65